Fort Klamath, Oregon
Current Conditions -  °F | °C
As of 1:53 PM on Monday 20 Oct 2014 (Local Time) from KLMT Reporting Station
Overcast Overcast  
Wind Chill: 52°   Ceiling: 3400
Heat Index: 52°   Visibility: 10mi
Dew Point: 45°   Wind: 12mph
Humidity: 77%   Direction: 290°WNW
Pressure: 29.87"   Gusts: NA
Location:  42.7°N, 122°W
Report Text: KLMT 202053Z 29010KT 10SM OVC034 11/07 A2987 RMK AO2 RAE06 SLP096 P0000 60004 T01110072 53002
Loading
Personal Weather Stations






























Interactive Weather Map
Tropical Storm Tracking
New forecast layout! Learn more

10-Day Weather Forecast

Advertisements
Track Severe Weather on mobile